createdAt,value
2019-02-08T00:00:24.145Z,49.10
2019-02-08T00:02:52.495Z,49.10
2019-02-08T00:05:20.782Z,49.10
2019-02-08T00:07:49.025Z,49.10
2019-02-08T00:10:18.797Z,49.10
2019-02-08T00:12:47.713Z,49.00
2019-02-08T00:15:19.213Z,49.00
2019-02-08T00:17:47.525Z,49.10
2019-02-08T00:20:17.402Z,49.10
2019-02-08T00:22:45.727Z,49.10
2019-02-08T00:25:18.183Z,49.60
2019-02-08T00:27:46.409Z,49.10
2019-02-08T00:30:18.420Z,49.10
2019-02-08T00:32:46.672Z,49.10
2019-02-08T00:35:14.893Z,49.10
2019-02-08T00:37:43.134Z,49.10
2019-02-08T00:40:14.201Z,49.10
2019-02-08T00:42:42.453Z,49.10
2019-02-08T00:45:13.958Z,49.10
2019-02-08T00:47:42.213Z,49.10
2019-02-08T00:50:16.538Z,49.20
2019-02-08T00:52:44.768Z,49.00
2019-02-08T00:55:13.021Z,49.10
2019-02-08T00:57:41.248Z,49.10
2019-02-08T01:00:11.330Z,49.10
2019-02-08T01:02:40.002Z,49.10
2019-02-08T01:05:19.139Z,49.10
2019-02-08T01:07:47.369Z,49.20
2019-02-08T01:10:18.655Z,49.20
2019-02-08T01:12:46.893Z,49.90
2019-02-08T01:15:16.946Z,49.80
2019-02-08T01:17:45.181Z,49.10
2019-02-08T01:20:15.866Z,49.10
2019-02-08T01:22:44.098Z,49.20
2019-02-08T01:25:14.790Z,49.10
2019-02-08T01:27:43.017Z,49.10
2019-02-08T01:30:14.202Z,49.10
2019-02-08T01:32:42.446Z,49.00
2019-02-08T01:35:12.860Z,49.10
2019-02-08T01:37:41.089Z,49.10
2019-02-08T01:40:21.293Z,49.10
2019-02-08T01:42:49.518Z,49.10
2019-02-08T01:45:20.457Z,49.10
2019-02-08T01:47:48.982Z,49.10
2019-02-08T01:50:22.566Z,49.10
2019-02-08T01:52:50.797Z,49.10
2019-02-08T01:55:19.040Z,49.10
2019-02-08T01:57:48.118Z,49.00
2019-02-08T02:00:21.828Z,49.00
2019-02-08T02:02:50.065Z,49.00
2019-02-08T02:05:18.987Z,49.00
2019-02-08T02:07:47.254Z,48.90
2019-02-08T02:10:37.036Z,49.00
2019-02-08T02:13:05.407Z,48.90
2019-02-08T02:15:33.647Z,49.00
2019-02-08T02:18:01.881Z,49.20
2019-02-08T02:20:32.370Z,49.10
2019-02-08T02:23:00.599Z,49.10
2019-02-08T02:25:28.840Z,49.00
2019-02-08T02:27:57.065Z,49.10
2019-02-08T02:30:33.673Z,49.10
2019-02-08T02:33:01.951Z,49.10
2019-02-08T02:35:30.198Z,49.00
2019-02-08T02:37:58.450Z,49.80
2019-02-08T02:40:26.752Z,49.10
2019-02-08T02:42:54.994Z,49.10
2019-02-08T02:45:29.268Z,49.10
2019-02-08T02:47:57.506Z,49.10
2019-02-08T02:50:25.745Z,49.80
2019-02-08T02:52:53.971Z,49.00
2019-02-08T02:55:24.156Z,49.00
2019-02-08T02:57:52.381Z,49.00
2019-02-08T03:00:32.198Z,49.00
2019-02-08T03:03:00.431Z,49.10
2019-02-08T03:05:28.930Z,49.10
2019-02-08T03:07:57.174Z,49.10
2019-02-08T03:10:25.398Z,49.10
2019-02-08T03:12:54.315Z,49.10
2019-02-08T03:15:23.801Z,49.00
2019-02-08T03:17:52.094Z,49.00
2019-02-08T03:20:21.768Z,49.00
2019-02-08T03:22:50.011Z,48.90
2019-02-08T03:25:23.398Z,48.90
2019-02-08T03:27:51.647Z,48.90
2019-02-08T03:30:38.115Z,48.90
2019-02-08T03:33:06.390Z,48.90
2019-02-08T03:35:34.699Z,48.80
2019-02-08T03:38:02.930Z,48.90
2019-02-08T03:40:31.701Z,49.00
2019-02-08T03:42:59.941Z,49.00
2019-02-08T03:45:35.557Z,49.00
2019-02-08T03:48:04.273Z,49.10
2019-02-08T03:50:32.502Z,49.00
2019-02-08T03:53:00.753Z,49.60
2019-02-08T03:55:28.988Z,48.90
2019-02-08T03:57:57.236Z,48.90
2019-02-08T04:00:34.538Z,48.90
2019-02-08T04:03:02.782Z,48.90
2019-02-08T04:05:31.013Z,48.90
2019-02-08T04:07:59.329Z,48.90
2019-02-08T04:10:28.228Z,48.90
2019-02-08T04:12:56.470Z,48.90
2019-02-08T04:15:25.451Z,48.80
2019-02-08T04:17:53.684Z,48.90
2019-02-08T04:20:28.321Z,49.00
2019-02-08T04:22:56.558Z,48.90
2019-02-08T04:25:25.527Z,48.90
2019-02-08T04:27:54.100Z,48.90
2019-02-08T04:30:29.717Z,48.90
2019-02-08T04:32:59.052Z,48.90
2019-02-08T04:35:27.281Z,48.90
2019-02-08T04:37:55.513Z,49.10
2019-02-08T04:40:27.269Z,49.00
2019-02-08T04:42:55.498Z,49.00
2019-02-08T04:45:23.738Z,48.90
2019-02-08T04:47:52.012Z,48.90
2019-02-08T04:50:25.301Z,49.00
2019-02-08T04:52:53.533Z,48.90
2019-02-08T04:55:21.773Z,48.90
2019-02-08T04:57:50.005Z,48.90
2019-02-08T05:00:24.565Z,48.90
2019-02-08T05:02:52.801Z,48.90
2019-02-08T05:05:21.050Z,48.90
2019-02-08T05:07:49.281Z,48.90
2019-02-08T05:10:20.622Z,49.00
2019-02-08T05:12:49.021Z,48.90
2019-02-08T05:15:17.270Z,48.90
2019-02-08T05:17:45.501Z,48.90
2019-02-08T05:20:19.037Z,48.90
2019-02-08T05:22:47.265Z,49.50
2019-02-08T05:25:16.041Z,48.80
2019-02-08T05:27:44.285Z,48.80
2019-02-08T05:30:24.295Z,48.80
2019-02-08T05:32:52.601Z,48.80
2019-02-08T05:35:20.846Z,48.90
2019-02-08T05:37:49.087Z,48.80
2019-02-08T05:40:19.470Z,48.90
2019-02-08T05:42:47.697Z,48.80
2019-02-08T05:45:18.181Z,48.90
2019-02-08T05:47:46.417Z,48.90
2019-02-08T05:50:19.825Z,48.90
2019-02-08T05:52:48.063Z,48.90
2019-02-08T05:55:22.337Z,48.90
2019-02-08T05:57:50.569Z,48.90
2019-02-08T06:00:25.830Z,48.90
2019-02-08T06:02:54.190Z,48.90
2019-02-08T06:05:22.640Z,48.90
2019-02-08T06:07:50.881Z,48.90
2019-02-08T06:10:19.114Z,48.90
2019-02-08T06:12:47.359Z,48.90
2019-02-08T06:15:23.310Z,49.60
2019-02-08T06:17:51.550Z,48.90
2019-02-08T06:20:25.049Z,48.90
2019-02-08T06:22:53.291Z,48.90
2019-02-08T06:25:22.291Z,48.90
2019-02-08T06:27:50.574Z,48.90
2019-02-08T06:30:24.603Z,48.90
2019-02-08T06:32:52.840Z,48.90
2019-02-08T06:35:23.005Z,48.90
2019-02-08T06:37:51.327Z,48.90
2019-02-08T06:40:31.321Z,48.90
2019-02-08T06:42:59.565Z,48.90
2019-02-08T06:45:27.794Z,48.80
2019-02-08T06:47:56.037Z,49.50
2019-02-08T06:50:25.814Z,48.80
2019-02-08T06:52:54.389Z,48.80
2019-02-08T06:55:22.623Z,48.70
2019-02-08T06:58:09.045Z,48.70
2019-02-08T07:00:48.093Z,48.70
2019-02-08T07:03:29.775Z,48.80
2019-02-08T07:06:05.376Z,48.70
2019-02-08T07:08:50.582Z,48.80
2019-02-08T07:11:20.453Z,48.80
2019-02-08T07:13:57.037Z,48.80
2019-02-08T07:16:33.060Z,48.80
2019-02-08T07:19:14.914Z,48.80
2019-02-08T07:21:44.789Z,48.90
2019-02-08T07:24:17.623Z,48.80
2019-02-08T07:26:56.593Z,48.80
2019-02-08T07:29:32.196Z,48.80
2019-02-08T07:32:10.965Z,48.80
2019-02-08T07:34:40.849Z,48.80
2019-02-08T07:37:13.517Z,48.90
2019-02-08T07:39:52.393Z,49.30
2019-02-08T07:42:31.426Z,48.90
2019-02-08T07:45:07.278Z,49.50
2019-02-08T07:47:37.147Z,48.90
2019-02-08T07:50:12.983Z,48.90
2019-02-08T07:53:09.187Z,49.10
2019-02-08T07:55:39.069Z,49.00
2019-02-08T07:58:08.942Z,48.90
2019-02-08T08:00:38.820Z,48.90
2019-02-08T08:03:21.000Z,48.90
2019-02-08T08:06:06.138Z,48.90
2019-02-08T08:08:42.221Z,48.80
2019-02-08T08:11:18.033Z,49.10
2019-02-08T08:13:51.057Z,48.80
2019-02-08T08:16:37.093Z,48.80
2019-02-08T08:19:16.064Z,48.80
2019-02-08T08:21:48.898Z,48.70
2019-02-08T08:24:33.678Z,48.80
2019-02-08T08:27:03.611Z,48.80
2019-02-08T08:29:33.481Z,48.80
2019-02-08T08:32:03.429Z,49.00
2019-02-08T08:34:55.557Z,48.90
2019-02-08T08:37:42.017Z,48.90
2019-02-08T08:40:28.301Z,48.80
2019-02-08T08:43:05.766Z,48.70
2019-02-08T08:45:49.141Z,48.80
2019-02-08T08:48:41.682Z,48.80
2019-02-08T08:51:29.538Z,48.80
2019-02-08T08:54:17.613Z,48.70
2019-02-08T08:56:49.214Z,48.80
2019-02-08T08:59:23.354Z,48.80
2019-02-08T09:02:20.393Z,48.70
2019-02-08T09:04:58.013Z,48.70
2019-02-08T09:07:51.649Z,48.70
2019-02-08T09:10:48.705Z,48.80
2019-02-08T09:13:48.318Z,48.90
2019-02-08T09:16:39.546Z,48.80
2019-02-08T09:19:17.182Z,48.90
2019-02-08T09:22:03.453Z,48.90
2019-02-08T09:24:43.485Z,48.80
2019-02-08T09:27:26.863Z,48.90
2019-02-08T09:30:00.998Z,48.80
2019-02-08T09:32:40.673Z,48.80
2019-02-08T09:35:45.589Z,48.90
2019-02-08T09:38:46.175Z,48.90
2019-02-08T09:41:29.564Z,48.70
2019-02-08T09:44:31.469Z,48.70
2019-02-08T09:47:17.313Z,48.70
2019-02-08T09:49:48.826Z,48.70
2019-02-08T09:52:29.194Z,48.80
2019-02-08T09:55:21.853Z,48.80
2019-02-08T09:58:10.677Z,48.80
2019-02-08T10:01:04.473Z,48.70
2019-02-08T10:03:41.919Z,49.40
2019-02-08T10:06:22.157Z,48.70
2019-02-08T10:08:59.761Z,48.80
2019-02-08T10:11:49.461Z,48.70
2019-02-08T10:14:29.889Z,48.70
2019-02-08T10:17:16.549Z,48.70
2019-02-08T10:20:04.622Z,48.60
2019-02-08T10:22:41.657Z,48.50
2019-02-08T10:25:18.734Z,48.60
2019-02-08T10:27:52.889Z,48.60
2019-02-08T10:30:57.611Z,48.60
2019-02-08T10:33:38.114Z,48.70
2019-02-08T10:36:26.074Z,48.60
2019-02-08T10:39:00.252Z,49.00
2019-02-08T10:41:49.857Z,48.70
2019-02-08T10:44:33.393Z,48.70
2019-02-08T10:47:29.880Z,48.60
2019-02-08T10:50:30.341Z,48.60
2019-02-08T10:53:36.735Z,48.60
2019-02-08T10:56:20.018Z,49.30
2019-02-08T10:59:19.953Z,48.60
2019-02-08T11:02:03.285Z,48.60
2019-02-08T11:05:00.564Z,48.70
2019-02-08T11:07:47.125Z,48.70
2019-02-08T11:10:24.573Z,48.70
2019-02-08T11:13:19.744Z,48.80
2019-02-08T11:16:10.273Z,48.80
2019-02-08T11:18:41.813Z,48.80
2019-02-08T11:21:10.053Z,48.80
2019-02-08T11:23:38.286Z,48.70
2019-02-08T11:26:06.800Z,48.70
2019-02-08T11:28:35.202Z,48.60
2019-02-08T11:31:03.542Z,48.60
2019-02-08T11:33:31.818Z,48.60
2019-02-08T11:36:00.060Z,48.60
2019-02-08T11:38:28.293Z,48.60
2019-02-08T11:40:56.533Z,48.50
2019-02-08T11:43:24.766Z,48.50
2019-02-08T11:45:53.013Z,48.50
2019-02-08T11:48:21.245Z,48.50
2019-02-08T11:50:49.489Z,48.60
2019-02-08T11:53:17.722Z,48.50
2019-02-08T11:55:45.965Z,48.60
2019-02-08T11:58:14.193Z,48.60
2019-02-08T12:00:44.063Z,48.50
2019-02-08T12:03:12.313Z,48.60
2019-02-08T12:05:40.545Z,48.50
2019-02-08T12:08:08.791Z,48.40
2019-02-08T12:10:37.029Z,48.50
2019-02-08T12:13:05.274Z,48.50
2019-02-08T12:15:33.505Z,48.40
2019-02-08T12:18:01.745Z,49.10
2019-02-08T12:20:29.977Z,48.40
2019-02-08T12:22:58.232Z,48.40
2019-02-08T12:25:26.469Z,48.40
2019-02-08T12:27:54.714Z,48.50
2019-02-08T12:30:40.557Z,48.50
2019-02-08T12:33:08.800Z,48.50
2019-02-08T12:35:37.022Z,48.50
2019-02-08T12:38:05.437Z,48.50
2019-02-08T12:40:33.669Z,48.50
2019-02-08T12:43:01.926Z,48.50
2019-02-08T12:45:30.152Z,48.50
2019-02-08T12:47:58.473Z,48.50
2019-02-08T12:50:26.705Z,48.50
2019-02-08T12:52:54.945Z,48.50
2019-02-08T12:55:24.141Z,48.50
2019-02-08T12:57:52.683Z,48.40
2019-02-08T13:00:22.526Z,48.40
2019-02-08T13:02:50.782Z,48.40
2019-02-08T13:05:19.185Z,48.30
2019-02-08T13:07:47.419Z,48.40
2019-02-08T13:10:21.229Z,48.40
2019-02-08T13:12:49.457Z,48.50
2019-02-08T13:15:18.066Z,48.50
2019-02-08T13:17:46.293Z,48.50
2019-02-08T13:20:19.718Z,48.50
2019-02-08T13:22:49.148Z,48.50
2019-02-08T13:25:17.839Z,48.40
2019-02-08T13:27:46.806Z,48.40
2019-02-08T13:30:24.129Z,48.40
2019-02-08T13:32:52.358Z,48.50
2019-02-08T13:35:20.881Z,49.00
2019-02-08T13:37:49.189Z,48.40
2019-02-08T13:40:25.197Z,49.10
2019-02-08T13:42:53.429Z,48.40
2019-02-08T13:45:21.669Z,48.50
2019-02-08T13:47:49.897Z,48.50
2019-02-08T13:50:20.382Z,48.50
2019-02-08T13:52:48.617Z,48.60
2019-02-08T13:55:19.749Z,48.60
2019-02-08T13:57:47.981Z,48.70
2019-02-08T14:00:22.206Z,48.70
2019-02-08T14:02:50.520Z,48.50
2019-02-08T14:05:18.761Z,48.50
2019-02-08T14:07:46.985Z,48.50
2019-02-08T14:10:21.618Z,48.50
2019-02-08T14:12:49.845Z,48.40
2019-02-08T14:15:21.170Z,48.40
2019-02-08T14:17:49.433Z,48.50
2019-02-08T14:20:19.917Z,48.40
2019-02-08T14:22:48.150Z,48.40
2019-02-08T14:25:17.734Z,48.40
2019-02-08T14:27:46.301Z,48.40
2019-02-08T14:30:35.574Z,48.50
2019-02-08T14:33:03.808Z,48.50
2019-02-08T14:35:32.096Z,48.50
2019-02-08T14:38:02.001Z,48.60
2019-02-08T14:40:30.617Z,48.60
2019-02-08T14:42:58.922Z,48.50
2019-02-08T14:45:27.159Z,48.50
2019-02-08T14:47:55.397Z,48.50
2019-02-08T14:50:25.565Z,48.50
2019-02-08T14:52:54.153Z,48.40
2019-02-08T14:55:22.382Z,48.40
2019-02-08T14:57:51.262Z,48.40
2019-02-08T15:00:23.234Z,48.40
2019-02-08T15:02:51.469Z,48.40
2019-02-08T15:05:22.482Z,48.40
2019-02-08T15:07:50.730Z,48.40
2019-02-08T15:10:34.024Z,48.40
2019-02-08T15:13:02.275Z,48.50
2019-02-08T15:15:30.505Z,48.50
2019-02-08T15:17:58.745Z,48.60
2019-02-08T15:20:29.030Z,49.20
2019-02-08T15:22:57.275Z,48.50
2019-02-08T15:25:25.504Z,48.50
2019-02-08T15:27:53.749Z,48.40
2019-02-08T15:30:30.257Z,48.40
2019-02-08T15:32:58.501Z,48.40
2019-02-08T15:35:30.805Z,48.40
2019-02-08T15:37:59.126Z,48.40
2019-02-08T15:40:30.252Z,48.40
2019-02-08T15:42:58.506Z,48.40
2019-02-08T15:45:26.738Z,48.40
2019-02-08T15:47:54.978Z,48.40
2019-02-08T15:50:23.285Z,48.40
2019-02-08T15:52:51.531Z,48.40
2019-02-08T15:55:28.737Z,48.50
2019-02-08T15:57:57.005Z,48.50
2019-02-08T16:00:27.423Z,48.50
2019-02-08T16:02:55.705Z,48.50
2019-02-08T16:05:23.929Z,48.50
2019-02-08T16:07:52.169Z,48.50
2019-02-08T16:10:20.413Z,48.40
2019-02-08T16:12:48.924Z,48.40
2019-02-08T16:15:22.781Z,48.90
2019-02-08T16:17:51.022Z,48.40
2019-02-08T16:20:20.910Z,48.40
2019-02-08T16:22:49.278Z,48.40
2019-02-08T16:25:19.859Z,48.40
2019-02-08T16:27:48.095Z,48.40
2019-02-08T16:30:24.921Z,48.40
2019-02-08T16:32:53.167Z,48.50
2019-02-08T16:35:22.550Z,48.50
2019-02-08T16:37:50.785Z,48.50
2019-02-08T16:40:23.870Z,48.50
2019-02-08T16:42:52.101Z,48.50
2019-02-08T16:45:29.425Z,48.40
2019-02-08T16:47:58.197Z,48.40
2019-02-08T16:50:28.944Z,48.40
2019-02-08T16:52:57.174Z,48.40
2019-02-08T16:55:25.489Z,48.40
2019-02-08T16:57:53.725Z,48.50
2019-02-08T17:00:29.565Z,48.40
2019-02-08T17:02:59.732Z,48.40
2019-02-08T17:05:28.706Z,48.40
2019-02-08T17:07:56.932Z,48.40
2019-02-08T17:10:25.174Z,48.40
2019-02-08T17:12:53.405Z,48.50
2019-02-08T17:15:26.948Z,48.40
2019-02-08T17:17:55.193Z,48.40
2019-02-08T17:20:26.341Z,48.50
2019-02-08T17:22:54.565Z,48.50
2019-02-08T17:25:22.809Z,48.50
2019-02-08T17:27:55.344Z,48.50
2019-02-08T17:30:21.177Z,48.50
2019-02-08T17:32:49.405Z,48.60
2019-02-08T17:35:19.986Z,48.40
2019-02-08T17:37:48.217Z,48.50
2019-02-08T17:40:18.822Z,48.50
2019-02-08T17:42:47.050Z,48.60
2019-02-08T17:45:17.320Z,48.50
2019-02-08T17:47:45.562Z,48.50
2019-02-08T17:50:22.112Z,48.40
2019-02-08T17:52:50.362Z,48.50
2019-02-08T17:55:20.529Z,48.50
2019-02-08T17:57:48.770Z,48.60
2019-02-08T18:00:24.074Z,48.50
2019-02-08T18:02:52.317Z,48.70
2019-02-08T18:05:20.573Z,48.50
2019-02-08T18:07:48.813Z,48.60
2019-02-08T18:10:22.157Z,48.50
2019-02-08T18:12:50.405Z,48.50
2019-02-08T18:15:24.073Z,48.50
2019-02-08T18:17:52.317Z,48.50
2019-02-08T18:20:23.689Z,48.50
2019-02-08T18:22:51.929Z,48.40
2019-02-08T18:25:20.165Z,48.40
2019-02-08T18:27:48.406Z,48.40
2019-02-08T18:30:19.757Z,48.40
2019-02-08T18:32:48.004Z,48.50
2019-02-08T18:35:16.234Z,48.50
2019-02-08T18:37:44.482Z,48.50
2019-02-08T18:40:18.922Z,48.50
2019-02-08T18:42:47.165Z,48.50
2019-02-08T18:45:17.937Z,48.00
2019-02-08T18:47:46.174Z,48.50
2019-02-08T18:50:20.067Z,48.60
2019-02-08T18:52:48.314Z,48.50
2019-02-08T18:55:16.547Z,48.50
2019-02-08T18:57:44.784Z,48.50
2019-02-08T19:00:16.329Z,48.50
2019-02-08T19:02:44.577Z,48.50
2019-02-08T19:05:14.041Z,48.50
2019-02-08T19:07:42.283Z,48.50
2019-02-08T19:10:15.944Z,48.50
2019-02-08T19:12:44.193Z,48.50
2019-02-08T19:15:15.993Z,48.60
2019-02-08T19:17:44.237Z,48.50
2019-02-08T19:20:15.045Z,48.50
2019-02-08T19:22:43.288Z,48.60
2019-02-08T19:25:17.335Z,48.60
2019-02-08T19:27:45.629Z,48.60
2019-02-08T19:30:19.570Z,48.60
2019-02-08T19:32:47.909Z,48.60
2019-02-08T19:35:16.357Z,48.60
2019-02-08T19:37:44.582Z,48.60
2019-02-08T19:40:18.225Z,48.50
2019-02-08T19:42:46.457Z,48.50
2019-02-08T19:45:18.581Z,48.50
2019-02-08T19:47:46.825Z,48.60
2019-02-08T19:50:29.207Z,48.50
2019-02-08T19:52:57.493Z,48.50
2019-02-08T19:55:26.394Z,48.50
2019-02-08T19:57:54.638Z,48.50
2019-02-08T20:00:24.725Z,48.50
2019-02-08T20:02:52.965Z,48.20
2019-02-08T20:05:22.950Z,48.50
2019-02-08T20:07:52.121Z,48.50
2019-02-08T20:10:31.638Z,48.50
2019-02-08T20:12:59.864Z,48.50
2019-02-08T20:15:28.269Z,48.50
2019-02-08T20:17:56.509Z,48.50
2019-02-08T20:20:25.014Z,48.40
2019-02-08T20:22:53.253Z,48.50
2019-02-08T20:25:30.292Z,48.40
2019-02-08T20:27:58.549Z,48.40
2019-02-08T20:30:28.340Z,48.40
2019-02-08T20:32:56.569Z,48.40
2019-02-08T20:35:25.849Z,48.60
2019-02-08T20:37:54.759Z,48.50
2019-02-08T20:40:43.950Z,48.50
2019-02-08T20:43:12.161Z,48.50
2019-02-08T20:45:40.410Z,48.50
2019-02-08T20:48:11.448Z,48.50
2019-02-08T20:50:39.777Z,48.50
2019-02-08T20:53:08.001Z,48.50
2019-02-08T20:55:36.253Z,48.50
2019-02-08T20:58:05.625Z,48.50
2019-02-08T21:00:38.922Z,48.50
2019-02-08T21:03:09.067Z,48.50
2019-02-08T21:05:37.778Z,48.50
2019-02-08T21:08:06.887Z,48.40
2019-02-08T21:10:35.809Z,48.50
2019-02-08T21:13:04.714Z,48.50
2019-02-08T21:15:32.961Z,48.50
2019-02-08T21:18:01.189Z,48.50
2019-02-08T21:20:29.429Z,48.60
2019-02-08T21:22:57.737Z,48.60
2019-02-08T21:25:31.464Z,48.60
2019-02-08T21:27:59.693Z,48.60
2019-02-08T21:30:27.946Z,48.60
2019-02-08T21:32:56.181Z,48.60
2019-02-08T21:35:24.421Z,48.60
2019-02-08T21:37:52.653Z,48.60
2019-02-08T21:40:26.903Z,48.50
2019-02-08T21:42:55.146Z,48.50
2019-02-08T21:45:26.043Z,48.50
2019-02-08T21:47:54.553Z,48.50
2019-02-08T21:50:23.238Z,48.60
2019-02-08T21:52:51.516Z,48.50
2019-02-08T21:55:22.453Z,48.50
2019-02-08T21:57:51.036Z,48.60
2019-02-08T22:00:24.765Z,48.60
2019-02-08T22:02:53.022Z,48.60
2019-02-08T22:05:23.958Z,48.60
2019-02-08T22:07:52.197Z,48.60
2019-02-08T22:10:20.430Z,48.60
2019-02-08T22:12:48.682Z,48.60
2019-02-08T22:15:31.862Z,48.60
2019-02-08T22:18:00.101Z,48.60
2019-02-08T22:20:28.333Z,48.60
2019-02-08T22:22:56.577Z,48.60
2019-02-08T22:25:26.960Z,48.70
2019-02-08T22:27:55.201Z,48.60
2019-02-08T22:30:24.869Z,48.60
2019-02-08T22:32:55.063Z,48.60
2019-02-08T22:35:24.433Z,48.50
2019-02-08T22:37:52.677Z,48.60
2019-02-08T22:40:23.411Z,48.70
2019-02-08T22:42:51.657Z,48.60
2019-02-08T22:45:33.541Z,48.60
2019-02-08T22:48:01.785Z,48.70
2019-02-08T22:50:30.197Z,48.60
2019-02-08T22:52:58.530Z,48.70
2019-02-08T22:55:33.625Z,48.50
2019-02-08T22:58:01.882Z,48.50
2019-02-08T23:00:37.764Z,48.50
2019-02-08T23:03:09.116Z,48.50
2019-02-08T23:05:45.022Z,48.50
2019-02-08T23:08:08.323Z,49.20
2019-02-08T23:10:36.557Z,48.50
2019-02-08T23:13:07.010Z,48.50
2019-02-08T23:15:35.241Z,48.50
2019-02-08T23:18:03.950Z,48.60
2019-02-08T23:20:32.181Z,48.70
2019-02-08T23:23:00.434Z,48.60
2019-02-08T23:25:28.661Z,48.70
2019-02-08T23:27:56.917Z,48.70
2019-02-08T23:30:25.205Z,48.60
2019-02-08T23:32:53.477Z,48.70
2019-02-08T23:35:21.716Z,48.60
2019-02-08T23:37:49.973Z,48.70
2019-02-08T23:40:19.149Z,48.60
2019-02-08T23:42:47.393Z,48.50
2019-02-08T23:45:22.653Z,48.60
2019-02-08T23:47:50.897Z,48.70
2019-02-08T23:50:22.805Z,48.60
2019-02-08T23:52:51.045Z,48.60
2019-02-08T23:55:23.065Z,48.50
2019-02-08T23:57:51.305Z,48.50
